sensor_id;sensor_type;location;lat;lon;timestamp;P1;durP1;ratioP1;P2;durP2;ratioP2
55003;SDS011;40900;52.710;6.438;2022-07-21T00:00:46;24.83;;;12.43;;
55003;SDS011;40900;52.710;6.438;2022-07-21T00:03:12;15.77;;;10.80;;
55003;SDS011;40900;52.710;6.438;2022-07-21T00:05:38;15.70;;;11.10;;
55003;SDS011;40900;52.710;6.438;2022-07-21T00:08:03;16.98;;;11.60;;
55003;SDS011;40900;52.710;6.438;2022-07-21T00:10:29;20.98;;;11.70;;
55003;SDS011;40900;52.710;6.438;2022-07-21T00:12:55;16.58;;;12.25;;
55003;SDS011;40900;52.710;6.438;2022-07-21T00:15:23;16.65;;;11.60;;
55003;SDS011;40900;52.710;6.438;2022-07-21T00:17:50;17.90;;;11.77;;
55003;SDS011;40900;52.710;6.438;2022-07-21T00:43:08;22.10;;;14.60;;
55003;SDS011;40900;52.710;6.438;2022-07-21T00:45:34;24.83;;;15.23;;
55003;SDS011;40900;52.710;6.438;2022-07-21T00:48:00;18.25;;;14.45;;
55003;SDS011;40900;52.710;6.438;2022-07-21T00:50:25;20.88;;;14.45;;
55003;SDS011;40900;52.710;6.438;2022-07-21T00:52:51;19.33;;;15.05;;
55003;SDS011;40900;52.710;6.438;2022-07-21T00:55:18;18.52;;;15.55;;
55003;SDS011;40900;52.710;6.438;2022-07-21T00:57:45;26.92;;;16.85;;
55003;SDS011;40900;52.710;6.438;2022-07-21T01:00:16;21.73;;;15.68;;
55003;SDS011;40900;52.710;6.438;2022-07-21T01:02:45;24.33;;;15.60;;
55003;SDS011;40900;52.710;6.438;2022-07-21T01:05:12;23.88;;;16.00;;
55003;SDS011;40900;52.710;6.438;2022-07-21T01:07:40;20.95;;;15.40;;
55003;SDS011;40900;52.710;6.438;2022-07-21T01:10:08;18.50;;;14.60;;
55003;SDS011;40900;52.710;6.438;2022-07-21T01:12:35;19.92;;;15.50;;
55003;SDS011;40900;52.710;6.438;2022-07-21T01:15:02;19.08;;;15.02;;
55003;SDS011;40900;52.710;6.438;2022-07-21T01:17:30;22.48;;;14.73;;
55003;SDS011;40900;52.710;6.438;2022-07-21T01:19:55;21.50;;;15.63;;
55003;SDS011;40900;52.710;6.438;2022-07-21T01:22:22;25.85;;;15.85;;
55003;SDS011;40900;52.710;6.438;2022-07-21T01:24:47;19.10;;;15.15;;
55003;SDS011;40900;52.710;6.438;2022-07-21T01:27:13;20.85;;;15.77;;
55003;SDS011;40900;52.710;6.438;2022-07-21T01:29:39;17.80;;;15.50;;
55003;SDS011;40900;52.710;6.438;2022-07-21T01:32:05;21.60;;;16.98;;
55003;SDS011;40900;52.710;6.438;2022-07-21T01:34:30;19.80;;;17.00;;
55003;SDS011;40900;52.710;6.438;2022-07-21T01:36:56;24.10;;;17.20;;
55003;SDS011;40900;52.710;6.438;2022-07-21T01:39:22;19.40;;;16.38;;
55003;SDS011;40900;52.710;6.438;2022-07-21T01:42:07;22.92;;;16.98;;
55003;SDS011;40900;52.710;6.438;2022-07-21T01:44:32;22.58;;;17.75;;
55003;SDS011;40900;52.710;6.438;2022-07-21T01:46:58;22.48;;;17.02;;
55003;SDS011;40900;52.710;6.438;2022-07-21T01:49:24;24.08;;;17.38;;
55003;SDS011;40900;52.710;6.438;2022-07-21T01:51:50;19.85;;;17.35;;
55003;SDS011;40900;52.710;6.438;2022-07-21T01:54:16;19.40;;;17.35;;
55003;SDS011;40900;52.710;6.438;2022-07-21T01:56:43;20.13;;;17.58;;
55003;SDS011;40900;52.710;6.438;2022-07-21T01:59:08;19.58;;;17.48;;
55003;SDS011;40900;52.710;6.438;2022-07-21T02:01:34;21.75;;;17.70;;
55003;SDS011;40900;52.710;6.438;2022-07-21T02:04:00;19.58;;;17.65;;
55003;SDS011;40900;52.710;6.438;2022-07-21T02:06:28;21.50;;;19.25;;
55003;SDS011;40900;52.710;6.438;2022-07-21T02:08:55;21.40;;;19.05;;
55003;SDS011;40900;52.710;6.438;2022-07-21T02:11:21;20.60;;;18.42;;
55003;SDS011;40900;52.710;6.438;2022-07-21T02:13:47;21.67;;;19.33;;
55003;SDS011;40900;52.710;6.438;2022-07-21T02:16:13;25.08;;;20.00;;
55003;SDS011;40900;52.710;6.438;2022-07-21T02:18:39;22.90;;;18.88;;
55003;SDS011;40900;52.710;6.438;2022-07-21T02:21:06;25.60;;;20.20;;
55003;SDS011;40900;52.710;6.438;2022-07-21T02:23:32;22.63;;;20.33;;
55003;SDS011;40900;52.710;6.438;2022-07-21T02:25:58;26.67;;;23.95;;
55003;SDS011;40900;52.710;6.438;2022-07-21T02:28:24;31.02;;;27.80;;
55003;SDS011;40900;52.710;6.438;2022-07-21T02:30:50;30.70;;;26.95;;
55003;SDS011;40900;52.710;6.438;2022-07-21T02:33:16;30.83;;;26.85;;
55003;SDS011;40900;52.710;6.438;2022-07-21T02:35:42;31.45;;;28.17;;
55003;SDS011;40900;52.710;6.438;2022-07-21T02:38:08;31.00;;;27.75;;
55003;SDS011;40900;52.710;6.438;2022-07-21T02:40:35;30.30;;;27.27;;
55003;SDS011;40900;52.710;6.438;2022-07-21T02:43:01;33.80;;;30.17;;
55003;SDS011;40900;52.710;6.438;2022-07-21T02:45:28;32.47;;;29.00;;
55003;SDS011;40900;52.710;6.438;2022-07-21T02:47:55;32.35;;;28.90;;
55003;SDS011;40900;52.710;6.438;2022-07-21T02:50:30;34.47;;;30.77;;
55003;SDS011;40900;52.710;6.438;2022-07-21T02:52:59;36.92;;;32.92;;
55003;SDS011;40900;52.710;6.438;2022-07-21T02:55:29;34.40;;;30.83;;
55003;SDS011;40900;52.710;6.438;2022-07-21T02:58:11;36.83;;;32.95;;
55003;SDS011;40900;52.710;6.438;2022-07-21T03:00:41;36.60;;;32.63;;
55003;SDS011;40900;52.710;6.438;2022-07-21T03:03:13;38.88;;;33.53;;
55003;SDS011;40900;52.710;6.438;2022-07-21T03:05:39;34.70;;;31.00;;
55003;SDS011;40900;52.710;6.438;2022-07-21T03:08:05;33.40;;;29.90;;
55003;SDS011;40900;52.710;6.438;2022-07-21T03:10:32;36.38;;;32.45;;
55003;SDS011;40900;52.710;6.438;2022-07-21T03:12:58;34.80;;;30.42;;
55003;SDS011;40900;52.710;6.438;2022-07-21T03:15:24;33.92;;;30.52;;
55003;SDS011;40900;52.710;6.438;2022-07-21T03:17:51;32.88;;;29.40;;
55003;SDS011;40900;52.710;6.438;2022-07-21T03:20:18;31.33;;;28.02;;
55003;SDS011;40900;52.710;6.438;2022-07-21T03:22:44;30.48;;;27.38;;
55003;SDS011;40900;52.710;6.438;2022-07-21T03:25:09;31.63;;;28.42;;
55003;SDS011;40900;52.710;6.438;2022-07-21T03:27:35;32.13;;;28.85;;
55003;SDS011;40900;52.710;6.438;2022-07-21T03:30:05;31.42;;;27.75;;
55003;SDS011;40900;52.710;6.438;2022-07-21T03:32:32;30.67;;;26.13;;
55003;SDS011;40900;52.710;6.438;2022-07-21T03:34:58;30.60;;;26.23;;
55003;SDS011;40900;52.710;6.438;2022-07-21T03:37:25;30.38;;;26.80;;
55003;SDS011;40900;52.710;6.438;2022-07-21T03:39:51;30.05;;;26.77;;
55003;SDS011;40900;52.710;6.438;2022-07-21T03:42:17;31.45;;;27.83;;
55003;SDS011;40900;52.710;6.438;2022-07-21T03:44:42;33.47;;;27.77;;
55003;SDS011;40900;52.710;6.438;2022-07-21T03:47:08;32.08;;;28.73;;
55003;SDS011;40900;52.710;6.438;2022-07-21T03:49:34;32.90;;;29.17;;
55003;SDS011;40900;52.710;6.438;2022-07-21T03:52:00;32.30;;;28.88;;
55003;SDS011;40900;52.710;6.438;2022-07-21T03:54:25;34.45;;;28.92;;
55003;SDS011;40900;52.710;6.438;2022-07-21T03:56:51;31.00;;;27.65;;
55003;SDS011;40900;52.710;6.438;2022-07-21T03:59:17;32.08;;;28.67;;
55003;SDS011;40900;52.710;6.438;2022-07-21T04:01:43;34.17;;;29.60;;
55003;SDS011;40900;52.710;6.438;2022-07-21T04:04:09;32.00;;;28.63;;
55003;SDS011;40900;52.710;6.438;2022-07-21T04:06:35;33.22;;;29.85;;
55003;SDS011;40900;52.710;6.438;2022-07-21T04:09:01;33.25;;;29.70;;
55003;SDS011;40900;52.710;6.438;2022-07-21T04:11:27;33.45;;;29.95;;
55003;SDS011;40900;52.710;6.438;2022-07-21T04:13:55;33.35;;;29.92;;
55003;SDS011;40900;52.710;6.438;2022-07-21T04:16:21;34.78;;;31.10;;
55003;SDS011;40900;52.710;6.438;2022-07-21T04:18:47;34.60;;;30.92;;
55003;SDS011;40900;52.710;6.438;2022-07-21T04:21:12;35.22;;;31.45;;
55003;SDS011;40900;52.710;6.438;2022-07-21T04:23:38;36.45;;;32.85;;
55003;SDS011;40900;52.710;6.438;2022-07-21T04:26:04;35.78;;;31.92;;
55003;SDS011;40900;52.710;6.438;2022-07-21T04:28:29;34.40;;;30.85;;
55003;SDS011;40900;52.710;6.438;2022-07-21T04:30:55;35.13;;;31.58;;
55003;SDS011;40900;52.710;6.438;2022-07-21T04:33:21;37.22;;;33.08;;
55003;SDS011;40900;52.710;6.438;2022-07-21T04:35:47;36.30;;;31.52;;
55003;SDS011;40900;52.710;6.438;2022-07-21T04:38:12;35.40;;;31.42;;
55003;SDS011;40900;52.710;6.438;2022-07-21T04:40:39;37.33;;;33.13;;
55003;SDS011;40900;52.710;6.438;2022-07-21T04:43:05;35.58;;;31.75;;
55003;SDS011;40900;52.710;6.438;2022-07-21T04:45:31;38.70;;;33.75;;
55003;SDS011;40900;52.710;6.438;2022-07-21T04:47:57;36.17;;;32.40;;
55003;SDS011;40900;52.710;6.438;2022-07-21T04:50:24;35.03;;;31.40;;
55003;SDS011;40900;52.710;6.438;2022-07-21T04:52:51;37.78;;;33.97;;
55003;SDS011;40900;52.710;6.438;2022-07-21T04:55:17;35.50;;;31.73;;
55003;SDS011;40900;52.710;6.438;2022-07-21T04:57:45;36.20;;;32.22;;
55003;SDS011;40900;52.710;6.438;2022-07-21T05:00:13;34.65;;;31.10;;
55003;SDS011;40900;52.710;6.438;2022-07-21T05:02:40;33.80;;;30.27;;
55003;SDS011;40900;52.710;6.438;2022-07-21T05:05:07;36.17;;;29.60;;
55003;SDS011;40900;52.710;6.438;2022-07-21T05:07:33;32.97;;;29.45;;
55003;SDS011;40900;52.710;6.438;2022-07-21T05:09:59;32.35;;;28.83;;
55003;SDS011;40900;52.710;6.438;2022-07-21T05:12:28;33.20;;;29.63;;
55003;SDS011;40900;52.710;6.438;2022-07-21T05:14:53;32.67;;;29.15;;
55003;SDS011;40900;52.710;6.438;2022-07-21T05:17:19;32.40;;;29.05;;
55003;SDS011;40900;52.710;6.438;2022-07-21T05:19:45;33.15;;;29.75;;
55003;SDS011;40900;52.710;6.438;2022-07-21T05:22:15;34.00;;;30.48;;
55003;SDS011;40900;52.710;6.438;2022-07-21T05:24:43;34.60;;;30.80;;
55003;SDS011;40900;52.710;6.438;2022-07-21T05:27:09;31.80;;;28.48;;
55003;SDS011;40900;52.710;6.438;2022-07-21T05:29:35;32.22;;;28.60;;
55003;SDS011;40900;52.710;6.438;2022-07-21T05:32:01;30.45;;;27.33;;
55003;SDS011;40900;52.710;6.438;2022-07-21T05:34:27;31.23;;;27.67;;
55003;SDS011;40900;52.710;6.438;2022-07-21T05:36:52;31.80;;;28.55;;
55003;SDS011;40900;52.710;6.438;2022-07-21T05:39:18;30.13;;;27.00;;
55003;SDS011;40900;52.710;6.438;2022-07-21T05:41:44;31.00;;;27.83;;
55003;SDS011;40900;52.710;6.438;2022-07-21T05:44:11;32.53;;;28.60;;
55003;SDS011;40900;52.710;6.438;2022-07-21T05:46:36;32.55;;;29.25;;
55003;SDS011;40900;52.710;6.438;2022-07-21T05:49:02;32.80;;;29.30;;
55003;SDS011;40900;52.710;6.438;2022-07-21T05:51:28;31.38;;;28.35;;
55003;SDS011;40900;52.710;6.438;2022-07-21T05:53:53;32.95;;;29.48;;
55003;SDS011;40900;52.710;6.438;2022-07-21T05:56:19;33.33;;;29.92;;
55003;SDS011;40900;52.710;6.438;2022-07-21T05:58:45;34.60;;;31.15;;
55003;SDS011;40900;52.710;6.438;2022-07-21T06:01:11;33.42;;;30.02;;
55003;SDS011;40900;52.710;6.438;2022-07-21T06:03:45;32.88;;;28.95;;
55003;SDS011;40900;52.710;6.438;2022-07-21T06:06:12;24.85;;;22.17;;
55003;SDS011;40900;52.710;6.438;2022-07-21T06:08:41;31.30;;;28.10;;
55003;SDS011;40900;52.710;6.438;2022-07-21T06:11:08;31.40;;;28.20;;
55003;SDS011;40900;52.710;6.438;2022-07-21T06:13:36;30.98;;;27.40;;
55003;SDS011;40900;52.710;6.438;2022-07-21T06:16:03;30.50;;;27.40;;
55003;SDS011;40900;52.710;6.438;2022-07-21T06:18:29;30.65;;;27.40;;
55003;SDS011;40900;52.710;6.438;2022-07-21T06:20:55;30.23;;;27.00;;
55003;SDS011;40900;52.710;6.438;2022-07-21T06:23:21;30.15;;;27.08;;
55003;SDS011;40900;52.710;6.438;2022-07-21T06:25:46;31.55;;;28.20;;
55003;SDS011;40900;52.710;6.438;2022-07-21T06:28:12;31.58;;;28.27;;
55003;SDS011;40900;52.710;6.438;2022-07-21T06:30:39;32.15;;;28.85;;
55003;SDS011;40900;52.710;6.438;2022-07-21T06:33:05;31.50;;;28.20;;
55003;SDS011;40900;52.710;6.438;2022-07-21T06:35:31;31.30;;;27.50;;
55003;SDS011;40900;52.710;6.438;2022-07-21T06:37:57;32.13;;;28.60;;
55003;SDS011;40900;52.710;6.438;2022-07-21T06:40:22;31.58;;;28.38;;
55003;SDS011;40900;52.710;6.438;2022-07-21T06:42:48;31.02;;;27.73;;
55003;SDS011;40900;52.710;6.438;2022-07-21T06:45:14;31.50;;;28.40;;
55003;SDS011;40900;52.710;6.438;2022-07-21T06:47:40;36.10;;;29.20;;
55003;SDS011;40900;52.710;6.438;2022-07-21T06:50:06;33.05;;;29.58;;
55003;SDS011;40900;52.710;6.438;2022-07-21T06:52:33;34.65;;;31.00;;
55003;SDS011;40900;52.710;6.438;2022-07-21T06:55:00;33.13;;;29.42;;
55003;SDS011;40900;52.710;6.438;2022-07-21T06:57:26;33.75;;;30.15;;
55003;SDS011;40900;52.710;6.438;2022-07-21T06:59:52;35.83;;;31.95;;
55003;SDS011;40900;52.710;6.438;2022-07-21T07:02:17;35.20;;;30.75;;
55003;SDS011;40900;52.710;6.438;2022-07-21T07:04:43;36.05;;;32.25;;
55003;SDS011;40900;52.710;6.438;2022-07-21T07:07:09;35.20;;;31.50;;
55003;SDS011;40900;52.710;6.438;2022-07-21T07:09:35;37.75;;;33.40;;
55003;SDS011;40900;52.710;6.438;2022-07-21T07:12:01;38.70;;;34.00;;
55003;SDS011;40900;52.710;6.438;2022-07-21T07:14:33;40.25;;;35.97;;
55003;SDS011;40900;52.710;6.438;2022-07-21T07:31:13;43.95;;;39.15;;
55003;SDS011;40900;52.710;6.438;2022-07-21T07:33:38;44.70;;;39.67;;
55003;SDS011;40900;52.710;6.438;2022-07-21T07:36:04;43.00;;;38.40;;
55003;SDS011;40900;52.710;6.438;2022-07-21T07:38:30;42.08;;;37.53;;
55003;SDS011;40900;52.710;6.438;2022-07-21T07:40:56;43.25;;;38.80;;
55003;SDS011;40900;52.710;6.438;2022-07-21T07:43:21;41.42;;;36.72;;
55003;SDS011;40900;52.710;6.438;2022-07-21T07:45:47;39.38;;;35.28;;
55003;SDS011;40900;52.710;6.438;2022-07-21T07:48:13;41.10;;;36.90;;
55003;SDS011;40900;52.710;6.438;2022-07-21T07:50:39;40.92;;;36.67;;
55003;SDS011;40900;52.710;6.438;2022-07-21T07:53:04;40.15;;;35.95;;
55003;SDS011;40900;52.710;6.438;2022-07-21T07:55:30;37.10;;;33.28;;
55003;SDS011;40900;52.710;6.438;2022-07-21T07:57:56;35.80;;;31.98;;
55003;SDS011;40900;52.710;6.438;2022-07-21T08:00:21;34.65;;;31.08;;
55003;SDS011;40900;52.710;6.438;2022-07-21T08:02:47;35.05;;;31.50;;
55003;SDS011;40900;52.710;6.438;2022-07-21T08:05:14;36.38;;;32.47;;
55003;SDS011;40900;52.710;6.438;2022-07-21T08:07:40;35.03;;;31.45;;
55003;SDS011;40900;52.710;6.438;2022-07-21T08:10:07;34.45;;;30.95;;
55003;SDS011;40900;52.710;6.438;2022-07-21T08:12:34;32.70;;;29.38;;
55003;SDS011;40900;52.710;6.438;2022-07-21T08:15:00;36.50;;;32.60;;
55003;SDS011;40900;52.710;6.438;2022-07-21T08:17:27;35.22;;;31.60;;
55003;SDS011;40900;52.710;6.438;2022-07-21T08:19:53;35.22;;;31.55;;
55003;SDS011;40900;52.710;6.438;2022-07-21T08:22:19;36.42;;;32.70;;
55003;SDS011;40900;52.710;6.438;2022-07-21T08:24:44;34.80;;;31.00;;
55003;SDS011;40900;52.710;6.438;2022-07-21T08:27:10;36.08;;;32.38;;
55003;SDS011;40900;52.710;6.438;2022-07-21T08:29:36;34.65;;;31.13;;
55003;SDS011;40900;52.710;6.438;2022-07-21T08:32:02;34.50;;;30.90;;
55003;SDS011;40900;52.710;6.438;2022-07-21T08:34:28;33.63;;;29.92;;
55003;SDS011;40900;52.710;6.438;2022-07-21T08:36:53;32.95;;;29.63;;
55003;SDS011;40900;52.710;6.438;2022-07-21T08:39:19;29.85;;;26.95;;
55003;SDS011;40900;52.710;6.438;2022-07-21T08:41:45;30.48;;;26.33;;
55003;SDS011;40900;52.710;6.438;2022-07-21T08:44:11;31.02;;;27.13;;
55003;SDS011;40900;52.710;6.438;2022-07-21T08:46:38;30.23;;;25.70;;
55003;SDS011;40900;52.710;6.438;2022-07-21T08:49:06;27.42;;;24.70;;
55003;SDS011;40900;52.710;6.438;2022-07-21T08:51:34;25.77;;;23.15;;
55003;SDS011;40900;52.710;6.438;2022-07-21T08:54:01;26.20;;;23.60;;
55003;SDS011;40900;52.710;6.438;2022-07-21T08:56:28;27.48;;;24.35;;
55003;SDS011;40900;52.710;6.438;2022-07-21T08:58:54;27.35;;;24.65;;
55003;SDS011;40900;52.710;6.438;2022-07-21T09:01:20;30.25;;;27.08;;
55003;SDS011;40900;52.710;6.438;2022-07-21T09:03:49;30.88;;;27.75;;
55003;SDS011;40900;52.710;6.438;2022-07-21T09:06:16;32.63;;;29.27;;
55003;SDS011;40900;52.710;6.438;2022-07-21T09:08:43;34.33;;;30.83;;
55003;SDS011;40900;52.710;6.438;2022-07-21T09:11:31;37.03;;;33.17;;
55003;SDS011;40900;52.710;6.438;2022-07-21T09:14:10;39.78;;;35.10;;
55003;SDS011;40900;52.710;6.438;2022-07-21T09:16:42;40.28;;;33.90;;
55003;SDS011;40900;52.710;6.438;2022-07-21T09:19:17;39.90;;;35.53;;
55003;SDS011;40900;52.710;6.438;2022-07-21T09:21:55;41.88;;;36.58;;
55003;SDS011;40900;52.710;6.438;2022-07-21T09:24:26;42.67;;;37.95;;
55003;SDS011;40900;52.710;6.438;2022-07-21T09:27:02;45.75;;;38.63;;
55003;SDS011;40900;52.710;6.438;2022-07-21T09:29:36;43.90;;;37.60;;
55003;SDS011;40900;52.710;6.438;2022-07-21T09:34:59;40.80;;;36.47;;
55003;SDS011;40900;52.710;6.438;2022-07-21T09:39:56;45.55;;;36.55;;
55003;SDS011;40900;52.710;6.438;2022-07-21T09:42:28;42.70;;;36.45;;
55003;SDS011;40900;52.710;6.438;2022-07-21T09:47:28;43.80;;;36.58;;
55003;SDS011;40900;52.710;6.438;2022-07-21T09:49:56;41.33;;;35.88;;
55003;SDS011;40900;52.710;6.438;2022-07-21T09:52:36;38.13;;;33.92;;
55003;SDS011;40900;52.710;6.438;2022-07-21T09:55:04;41.00;;;32.92;;
55003;SDS011;40900;52.710;6.438;2022-07-21T09:57:35;38.20;;;32.83;;
55003;SDS011;40900;52.710;6.438;2022-07-21T10:00:03;35.42;;;31.52;;
55003;SDS011;40900;52.710;6.438;2022-07-21T10:02:32;35.90;;;32.20;;
55003;SDS011;40900;52.710;6.438;2022-07-21T10:05:03;38.97;;;32.15;;
55003;SDS011;40900;52.710;6.438;2022-07-21T10:07:41;33.17;;;29.70;;
55003;SDS011;40900;52.710;6.438;2022-07-21T10:10:09;35.17;;;31.48;;
55003;SDS011;40900;52.710;6.438;2022-07-21T10:12:35;33.28;;;29.40;;
55003;SDS011;40900;52.710;6.438;2022-07-21T10:15:01;33.53;;;30.10;;
55003;SDS011;40900;52.710;6.438;2022-07-21T10:17:27;35.85;;;30.98;;
55003;SDS011;40900;52.710;6.438;2022-07-21T10:20:11;38.45;;;31.80;;
55003;SDS011;40900;52.710;6.438;2022-07-21T10:25:31;36.63;;;32.70;;
55003;SDS011;40900;52.710;6.438;2022-07-21T10:28:19;36.15;;;32.20;;
55003;SDS011;40900;52.710;6.438;2022-07-21T10:30:45;35.28;;;31.73;;
55003;SDS011;40900;52.710;6.438;2022-07-21T10:33:17;33.47;;;29.75;;
55003;SDS011;40900;52.710;6.438;2022-07-21T10:35:45;38.67;;;32.53;;
55003;SDS011;40900;52.710;6.438;2022-07-21T10:40:52;43.50;;;35.78;;
55003;SDS011;40900;52.710;6.438;2022-07-21T10:45:49;44.10;;;35.55;;
55003;SDS011;40900;52.710;6.438;2022-07-21T10:51:03;32.85;;;29.30;;
55003;SDS011;40900;52.710;6.438;2022-07-21T10:53:31;35.85;;;30.85;;
55003;SDS011;40900;52.710;6.438;2022-07-21T10:55:57;37.25;;;31.70;;
55003;SDS011;40900;52.710;6.438;2022-07-21T11:03:23;41.40;;;36.67;;
55003;SDS011;40900;52.710;6.438;2022-07-21T11:08:36;32.45;;;28.33;;
55003;SDS011;40900;52.710;6.438;2022-07-21T11:13:56;45.83;;;39.13;;
55003;SDS011;40900;52.710;6.438;2022-07-21T11:17:23;41.42;;;36.85;;
55003;SDS011;40900;52.710;6.438;2022-07-21T11:21:54;42.40;;;37.85;;
55003;SDS011;40900;52.710;6.438;2022-07-21T11:24:23;41.25;;;35.13;;
55003;SDS011;40900;52.710;6.438;2022-07-21T11:26:56;40.63;;;36.30;;
55003;SDS011;40900;52.710;6.438;2022-07-21T11:29:24;44.97;;;37.67;;
55003;SDS011;40900;52.710;6.438;2022-07-21T11:31:51;44.03;;;38.35;;
55003;SDS011;40900;52.710;6.438;2022-07-21T11:34:17;37.78;;;32.85;;
55003;SDS011;40900;52.710;6.438;2022-07-21T11:36:44;39.42;;;35.30;;
55003;SDS011;40900;52.710;6.438;2022-07-21T11:39:11;35.13;;;31.40;;
55003;SDS011;40900;52.710;6.438;2022-07-21T11:41:39;36.15;;;32.10;;
55003;SDS011;40900;52.710;6.438;2022-07-21T11:44:06;35.58;;;31.75;;
55003;SDS011;40900;52.710;6.438;2022-07-21T11:46:53;36.70;;;32.90;;
55003;SDS011;40900;52.710;6.438;2022-07-21T11:49:20;35.35;;;31.52;;
55003;SDS011;40900;52.710;6.438;2022-07-21T11:51:50;36.50;;;32.38;;
55003;SDS011;40900;52.710;6.438;2022-07-21T11:56:52;37.45;;;32.03;;
55003;SDS011;40900;52.710;6.438;2022-07-21T11:59:18;35.63;;;31.35;;
55003;SDS011;40900;52.710;6.438;2022-07-21T12:01:48;36.03;;;29.42;;
55003;SDS011;40900;52.710;6.438;2022-07-21T12:07:03;33.60;;;29.83;;
55003;SDS011;40900;52.710;6.438;2022-07-21T12:09:36;32.85;;;28.95;;
55003;SDS011;40900;52.710;6.438;2022-07-21T12:12:02;32.10;;;28.23;;
55003;SDS011;40900;52.710;6.438;2022-07-21T12:14:49;30.73;;;27.52;;
55003;SDS011;40900;52.710;6.438;2022-07-21T12:17:17;29.67;;;25.90;;
55003;SDS011;40900;52.710;6.438;2022-07-21T12:19:57;29.98;;;26.00;;
55003;SDS011;40900;52.710;6.438;2022-07-21T12:22:40;32.30;;;25.77;;
55003;SDS011;40900;52.710;6.438;2022-07-21T12:25:12;28.20;;;25.02;;
55003;SDS011;40900;52.710;6.438;2022-07-21T12:27:40;27.35;;;24.45;;
55003;SDS011;40900;52.710;6.438;2022-07-21T12:30:08;28.90;;;25.40;;
55003;SDS011;40900;52.710;6.438;2022-07-21T12:32:44;31.05;;;27.58;;
55003;SDS011;40900;52.710;6.438;2022-07-21T12:35:32;29.55;;;26.30;;
55003;SDS011;40900;52.710;6.438;2022-07-21T12:37:59;29.35;;;26.08;;
55003;SDS011;40900;52.710;6.438;2022-07-21T12:40:32;26.90;;;24.10;;
55003;SDS011;40900;52.710;6.438;2022-07-21T12:45:55;28.73;;;24.20;;
55003;SDS011;40900;52.710;6.438;2022-07-21T12:48:26;26.80;;;23.02;;
55003;SDS011;40900;52.710;6.438;2022-07-21T12:51:42;25.27;;;22.63;;
55003;SDS011;40900;52.710;6.438;2022-07-21T12:53:49;26.45;;;23.48;;
55003;SDS011;40900;52.710;6.438;2022-07-21T12:56:20;24.80;;;22.20;;
55003;SDS011;40900;52.710;6.438;2022-07-21T12:58:48;24.23;;;21.52;;
55003;SDS011;40900;52.710;6.438;2022-07-21T13:01:15;23.30;;;20.88;;
55003;SDS011;40900;52.710;6.438;2022-07-21T13:03:42;24.45;;;21.83;;
55003;SDS011;40900;52.710;6.438;2022-07-21T13:06:08;25.77;;;20.92;;
55003;SDS011;40900;52.710;6.438;2022-07-21T13:08:35;23.63;;;21.23;;
55003;SDS011;40900;52.710;6.438;2022-07-21T13:11:03;23.90;;;21.50;;
55003;SDS011;40900;52.710;6.438;2022-07-21T13:13:30;22.80;;;20.45;;
55003;SDS011;40900;52.710;6.438;2022-07-21T13:15:56;23.75;;;21.23;;
55003;SDS011;40900;52.710;6.438;2022-07-21T13:18:23;22.00;;;19.13;;
55003;SDS011;40900;52.710;6.438;2022-07-21T13:20:50;20.35;;;18.33;;
55003;SDS011;40900;52.710;6.438;2022-07-21T13:23:16;19.67;;;17.58;;
55003;SDS011;40900;52.710;6.438;2022-07-21T13:25:42;16.90;;;14.35;;
55003;SDS011;40900;52.710;6.438;2022-07-21T13:28:08;13.32;;;11.60;;
55003;SDS011;40900;52.710;6.438;2022-07-21T13:30:34;10.82;;;9.68;;
55003;SDS011;40900;52.710;6.438;2022-07-21T13:32:59;10.68;;;9.57;;
55003;SDS011;40900;52.710;6.438;2022-07-21T13:35:26;10.15;;;9.15;;
55003;SDS011;40900;52.710;6.438;2022-07-21T13:37:52;8.45;;;7.65;;
55003;SDS011;40900;52.710;6.438;2022-07-21T13:40:19;7.88;;;6.85;;
55003;SDS011;40900;52.710;6.438;2022-07-21T13:42:44;8.73;;;7.88;;
55003;SDS011;40900;52.710;6.438;2022-07-21T13:45:10;8.07;;;7.35;;
55003;SDS011;40900;52.710;6.438;2022-07-21T13:47:36;8.10;;;6.13;;
55003;SDS011;40900;52.710;6.438;2022-07-21T13:50:03;6.10;;;5.50;;
55003;SDS011;40900;52.710;6.438;2022-07-21T13:52:31;6.43;;;5.43;;
55003;SDS011;40900;52.710;6.438;2022-07-21T13:54:57;6.18;;;4.95;;
55003;SDS011;40900;52.710;6.438;2022-07-21T13:57:23;6.43;;;5.82;;
55003;SDS011;40900;52.710;6.438;2022-07-21T13:59:49;6.28;;;5.63;;
55003;SDS011;40900;52.710;6.438;2022-07-21T14:02:14;8.63;;;6.18;;
55003;SDS011;40900;52.710;6.438;2022-07-21T14:04:40;7.15;;;6.32;;
55003;SDS011;40900;52.710;6.438;2022-07-21T14:07:06;7.43;;;6.50;;
55003;SDS011;40900;52.710;6.438;2022-07-21T14:09:31;7.57;;;6.53;;
55003;SDS011;40900;52.710;6.438;2022-07-21T14:11:57;7.35;;;6.32;;
55003;SDS011;40900;52.710;6.438;2022-07-21T14:14:24;6.30;;;5.70;;
55003;SDS011;40900;52.710;6.438;2022-07-21T14:16:51;6.05;;;4.65;;
55003;SDS011;40900;52.710;6.438;2022-07-21T14:19:19;4.88;;;4.47;;
55003;SDS011;40900;52.710;6.438;2022-07-21T14:21:45;6.47;;;4.38;;
55003;SDS011;40900;52.710;6.438;2022-07-21T14:24:10;6.30;;;5.70;;
55003;SDS011;40900;52.710;6.438;2022-07-21T14:26:55;6.72;;;5.80;;
55003;SDS011;40900;52.710;6.438;2022-07-21T14:29:21;6.47;;;5.10;;
55003;SDS011;40900;52.710;6.438;2022-07-21T14:31:46;8.10;;;5.22;;
55003;SDS011;40900;52.710;6.438;2022-07-21T14:34:14;6.13;;;5.53;;
55003;SDS011;40900;52.710;6.438;2022-07-21T14:36:40;6.35;;;5.65;;
55003;SDS011;40900;52.710;6.438;2022-07-21T14:39:06;6.93;;;6.22;;
55003;SDS011;40900;52.710;6.438;2022-07-21T14:41:32;7.57;;;6.35;;
55003;SDS011;40900;52.710;6.438;2022-07-21T14:43:58;10.38;;;5.97;;
55003;SDS011;40900;52.710;6.438;2022-07-21T14:46:24;8.63;;;6.35;;
55003;SDS011;40900;52.710;6.438;2022-07-21T14:48:49;6.53;;;5.70;;
55003;SDS011;40900;52.710;6.438;2022-07-21T14:51:15;7.75;;;5.60;;
55003;SDS011;40900;52.710;6.438;2022-07-21T14:53:41;5.93;;;5.20;;
55003;SDS011;40900;52.710;6.438;2022-07-21T14:56:08;6.07;;;5.45;;
55003;SDS011;40900;52.710;6.438;2022-07-21T14:58:34;5.47;;;4.93;;
55003;SDS011;40900;52.710;6.438;2022-07-21T15:01:00;6.72;;;5.53;;
55003;SDS011;40900;52.710;6.438;2022-07-21T15:03:26;6.15;;;5.45;;
55003;SDS011;40900;52.710;6.438;2022-07-21T15:05:52;6.70;;;5.50;;
55003;SDS011;40900;52.710;6.438;2022-07-21T15:08:18;5.53;;;5.03;;
55003;SDS011;40900;52.710;6.438;2022-07-21T15:10:44;6.10;;;5.50;;
55003;SDS011;40900;52.710;6.438;2022-07-21T15:13:11;5.72;;;5.18;;
55003;SDS011;40900;52.710;6.438;2022-07-21T15:15:37;6.10;;;5.50;;
55003;SDS011;40900;52.710;6.438;2022-07-21T15:18:03;6.25;;;5.55;;
55003;SDS011;40900;52.710;6.438;2022-07-21T15:20:29;5.95;;;5.35;;
55003;SDS011;40900;52.710;6.438;2022-07-21T15:22:55;5.80;;;5.30;;
55003;SDS011;40900;52.710;6.438;2022-07-21T15:25:21;5.75;;;5.03;;
55003;SDS011;40900;52.710;6.438;2022-07-21T15:27:46;6.55;;;5.10;;
55003;SDS011;40900;52.710;6.438;2022-07-21T15:30:13;5.80;;;4.70;;
55003;SDS011;40900;52.710;6.438;2022-07-21T15:32:39;6.82;;;5.82;;
55003;SDS011;40900;52.710;6.438;2022-07-21T15:35:06;6.88;;;5.78;;
55003;SDS011;40900;52.710;6.438;2022-07-21T15:37:33;6.50;;;5.18;;
55003;SDS011;40900;52.710;6.438;2022-07-21T15:39:59;6.32;;;4.82;;
55003;SDS011;40900;52.710;6.438;2022-07-21T15:42:25;7.38;;;5.32;;
55003;SDS011;40900;52.710;6.438;2022-07-21T15:44:52;5.60;;;5.10;;